sensor_id;sensor_type;location;lat;lon;timestamp;P1;durP1;ratioP1;P2;durP2;ratioP2
22675;SDS011;12521;43.310;21.876;2023-01-29T00:03:00;48.0;;;30.0;;
22675;SDS011;12521;43.310;21.876;2023-01-29T00:07:37;48.0;;;30.0;;
22675;SDS011;12521;43.310;21.876;2023-01-29T00:12:13;46.0;;;30.0;;
22675;SDS011;12521;43.310;21.876;2023-01-29T00:16:49;46.0;;;30.0;;
22675;SDS011;12521;43.310;21.876;2023-01-29T00:21:25;45.0;;;30.0;;
22675;SDS011;12521;43.310;21.876;2023-01-29T00:26:02;45.0;;;30.0;;
22675;SDS011;12521;43.310;21.876;2023-01-29T00:30:39;42.0;;;28.0;;
22675;SDS011;12521;43.310;21.876;2023-01-29T00:35:16;42.0;;;28.0;;
22675;SDS011;12521;43.310;21.876;2023-01-29T00:39:52;40.0;;;26.0;;
22675;SDS011;12521;43.310;21.876;2023-01-29T00:44:29;40.0;;;26.0;;
22675;SDS011;12521;43.310;21.876;2023-01-29T00:49:08;46.0;;;32.0;;
22675;SDS011;12521;43.310;21.876;2023-01-29T00:53:46;46.0;;;32.0;;
22675;SDS011;12521;43.310;21.876;2023-01-29T00:58:23;46.0;;;32.0;;
22675;SDS011;12521;43.310;21.876;2023-01-29T01:02:59;51.0;;;37.0;;
22675;SDS011;12521;43.310;21.876;2023-01-29T01:07:36;51.0;;;37.0;;
22675;SDS011;12521;43.310;21.876;2023-01-29T01:12:12;43.0;;;32.0;;
22675;SDS011;12521;43.310;21.876;2023-01-29T01:16:49;43.0;;;32.0;;
22675;SDS011;12521;43.310;21.876;2023-01-29T01:21:26;35.0;;;27.0;;
22675;SDS011;12521;43.310;21.876;2023-01-29T01:26:09;35.0;;;27.0;;
22675;SDS011;12521;43.310;21.876;2023-01-29T01:30:45;39.0;;;30.0;;
22675;SDS011;12521;43.310;21.876;2023-01-29T01:35:22;39.0;;;30.0;;
22675;SDS011;12521;43.310;21.876;2023-01-29T01:39:58;43.0;;;32.0;;
22675;SDS011;12521;43.310;21.876;2023-01-29T01:45:25;43.0;;;32.0;;
22675;SDS011;12521;43.310;21.876;2023-01-29T01:50:17;35.0;;;26.0;;
22675;SDS011;12521;43.310;21.876;2023-01-29T01:55:00;35.0;;;26.0;;
22675;SDS011;12521;43.310;21.876;2023-01-29T01:59:42;27.0;;;20.0;;
22675;SDS011;12521;43.310;21.876;2023-01-29T02:04:29;27.0;;;20.0;;
22675;SDS011;12521;43.310;21.876;2023-01-29T02:09:23;25.0;;;19.0;;
22675;SDS011;12521;43.310;21.876;2023-01-29T02:14:11;25.0;;;19.0;;
22675;SDS011;12521;43.310;21.876;2023-01-29T02:18:50;25.0;;;19.0;;
22675;SDS011;12521;43.310;21.876;2023-01-29T02:24:52;23.0;;;18.0;;
22675;SDS011;12521;43.310;21.876;2023-01-29T02:30:22;23.0;;;19.0;;
22675;SDS011;12521;43.310;21.876;2023-01-29T02:35:31;23.0;;;19.0;;
22675;SDS011;12521;43.310;21.876;2023-01-29T02:40:42;23.0;;;20.0;;
22675;SDS011;12521;43.310;21.876;2023-01-29T02:45:49;23.0;;;20.0;;
22675;SDS011;12521;43.310;21.876;2023-01-29T02:50:58;22.0;;;20.0;;
22675;SDS011;12521;43.310;21.876;2023-01-29T02:55:52;22.0;;;20.0;;
22675;SDS011;12521;43.310;21.876;2023-01-29T03:00:47;20.0;;;19.0;;
22675;SDS011;12521;43.310;21.876;2023-01-29T03:10:55;22.0;;;18.0;;
22675;SDS011;12521;43.310;21.876;2023-01-29T03:15:47;22.0;;;18.0;;
22675;SDS011;12521;43.310;21.876;2023-01-29T03:20:36;23.0;;;18.0;;
22675;SDS011;12521;43.310;21.876;2023-01-29T03:25:27;23.0;;;18.0;;
22675;SDS011;12521;43.310;21.876;2023-01-29T03:30:17;24.0;;;20.0;;
22675;SDS011;12521;43.310;21.876;2023-01-29T03:35:13;24.0;;;20.0;;
22675;SDS011;12521;43.310;21.876;2023-01-29T03:40:09;26.0;;;21.0;;
22675;SDS011;12521;43.310;21.876;2023-01-29T03:45:12;26.0;;;21.0;;
22675;SDS011;12521;43.310;21.876;2023-01-29T03:50:36;24.0;;;20.0;;
22675;SDS011;12521;43.310;21.876;2023-01-29T03:56:06;24.0;;;20.0;;
22675;SDS011;12521;43.310;21.876;2023-01-29T04:01:28;23.0;;;19.0;;
22675;SDS011;12521;43.310;21.876;2023-01-29T04:06:29;23.0;;;19.0;;
22675;SDS011;12521;43.310;21.876;2023-01-29T04:11:22;26.0;;;18.0;;
22675;SDS011;12521;43.310;21.876;2023-01-29T04:16:09;26.0;;;18.0;;
22675;SDS011;12521;43.310;21.876;2023-01-29T04:20:55;28.0;;;17.0;;
22675;SDS011;12521;43.310;21.876;2023-01-29T04:25:52;28.0;;;17.0;;
22675;SDS011;12521;43.310;21.876;2023-01-29T04:31:01;28.0;;;20.0;;
22675;SDS011;12521;43.310;21.876;2023-01-29T04:36:17;28.0;;;20.0;;
22675;SDS011;12521;43.310;21.876;2023-01-29T04:41:25;27.0;;;23.0;;
22675;SDS011;12521;43.310;21.876;2023-01-29T04:46:20;27.0;;;23.0;;
22675;SDS011;12521;43.310;21.876;2023-01-29T04:51:23;27.0;;;23.0;;
22675;SDS011;12521;43.310;21.876;2023-01-29T04:56:34;27.0;;;23.0;;
22675;SDS011;12521;43.310;21.876;2023-01-29T05:01:34;27.0;;;23.0;;
22675;SDS011;12521;43.310;21.876;2023-01-29T05:06:17;27.0;;;23.0;;
22675;SDS011;12521;43.310;21.876;2023-01-29T05:10:59;28.0;;;22.0;;
22675;SDS011;12521;43.310;21.876;2023-01-29T05:15:43;28.0;;;22.0;;
22675;SDS011;12521;43.310;21.876;2023-01-29T05:20:40;28.0;;;20.0;;
22675;SDS011;12521;43.310;21.876;2023-01-29T05:25:30;28.0;;;20.0;;
22675;SDS011;12521;43.310;21.876;2023-01-29T05:30:10;26.0;;;19.0;;
22675;SDS011;12521;43.310;21.876;2023-01-29T05:34:47;26.0;;;19.0;;
22675;SDS011;12521;43.310;21.876;2023-01-29T05:39:23;25.0;;;18.0;;
22675;SDS011;12521;43.310;21.876;2023-01-29T05:43:59;25.0;;;18.0;;
22675;SDS011;12521;43.310;21.876;2023-01-29T05:48:36;25.0;;;18.0;;
22675;SDS011;12521;43.310;21.876;2023-01-29T05:53:12;27.0;;;20.0;;
22675;SDS011;12521;43.310;21.876;2023-01-29T05:57:49;27.0;;;20.0;;
22675;SDS011;12521;43.310;21.876;2023-01-29T06:02:29;29.0;;;23.0;;
22675;SDS011;12521;43.310;21.876;2023-01-29T06:07:06;29.0;;;23.0;;
22675;SDS011;12521;43.310;21.876;2023-01-29T06:11:42;29.0;;;22.0;;
22675;SDS011;12521;43.310;21.876;2023-01-29T06:16:19;29.0;;;22.0;;
22675;SDS011;12521;43.310;21.876;2023-01-29T06:21:00;29.0;;;22.0;;
22675;SDS011;12521;43.310;21.876;2023-01-29T06:25:44;29.0;;;22.0;;
22675;SDS011;12521;43.310;21.876;2023-01-29T06:30:22;34.0;;;24.0;;
22675;SDS011;12521;43.310;21.876;2023-01-29T06:34:58;34.0;;;24.0;;
22675;SDS011;12521;43.310;21.876;2023-01-29T06:39:35;38.0;;;27.0;;
22675;SDS011;12521;43.310;21.876;2023-01-29T06:44:11;38.0;;;27.0;;
22675;SDS011;12521;43.310;21.876;2023-01-29T06:48:48;38.0;;;27.0;;
22675;SDS011;12521;43.310;21.876;2023-01-29T06:53:25;34.0;;;24.0;;
22675;SDS011;12521;43.310;21.876;2023-01-29T06:58:06;34.0;;;24.0;;
22675;SDS011;12521;43.310;21.876;2023-01-29T07:02:48;29.0;;;20.0;;
22675;SDS011;12521;43.310;21.876;2023-01-29T07:07:24;29.0;;;20.0;;
22675;SDS011;12521;43.310;21.876;2023-01-29T07:12:00;32.0;;;22.0;;
22675;SDS011;12521;43.310;21.876;2023-01-29T07:16:38;32.0;;;22.0;;
22675;SDS011;12521;43.310;21.876;2023-01-29T07:21:14;35.0;;;24.0;;
22675;SDS011;12521;43.310;21.876;2023-01-29T07:25:51;35.0;;;24.0;;
22675;SDS011;12521;43.310;21.876;2023-01-29T07:30:28;32.0;;;22.0;;
22675;SDS011;12521;43.310;21.876;2023-01-29T07:35:07;32.0;;;22.0;;
22675;SDS011;12521;43.310;21.876;2023-01-29T07:39:45;29.0;;;21.0;;
22675;SDS011;12521;43.310;21.876;2023-01-29T07:44:22;29.0;;;21.0;;
22675;SDS011;12521;43.310;21.876;2023-01-29T07:48:59;29.0;;;21.0;;
22675;SDS011;12521;43.310;21.876;2023-01-29T07:53:35;62.0;;;42.0;;
22675;SDS011;12521;43.310;21.876;2023-01-29T07:58:12;62.0;;;42.0;;
22675;SDS011;12521;43.310;21.876;2023-01-29T08:02:48;96.0;;;64.0;;
22675;SDS011;12521;43.310;21.876;2023-01-29T08:07:25;96.0;;;64.0;;
22675;SDS011;12521;43.310;21.876;2023-01-29T08:12:02;64.0;;;45.0;;
22675;SDS011;12521;43.310;21.876;2023-01-29T08:16:39;64.0;;;45.0;;
22675;SDS011;12521;43.310;21.876;2023-01-29T08:21:15;31.0;;;26.0;;
22675;SDS011;12521;43.310;21.876;2023-01-29T08:25:51;31.0;;;26.0;;
22675;SDS011;12521;43.310;21.876;2023-01-29T08:30:33;36.0;;;30.0;;
22675;SDS011;12521;43.310;21.876;2023-01-29T08:35:10;36.0;;;30.0;;
22675;SDS011;12521;43.310;21.876;2023-01-29T08:39:47;42.0;;;33.0;;
22675;SDS011;12521;43.310;21.876;2023-01-29T08:44:23;42.0;;;33.0;;
22675;SDS011;12521;43.310;21.876;2023-01-29T08:49:00;42.0;;;33.0;;
22675;SDS011;12521;43.310;21.876;2023-01-29T08:53:36;60.0;;;42.0;;
22675;SDS011;12521;43.310;21.876;2023-01-29T08:58:13;60.0;;;42.0;;
22675;SDS011;12521;43.310;21.876;2023-01-29T09:02:49;79.0;;;50.0;;
22675;SDS011;12521;43.310;21.876;2023-01-29T09:07:28;79.0;;;50.0;;
22675;SDS011;12521;43.310;21.876;2023-01-29T09:12:06;80.0;;;53.0;;
22675;SDS011;12521;43.310;21.876;2023-01-29T09:16:42;80.0;;;53.0;;
22675;SDS011;12521;43.310;21.876;2023-01-29T09:21:19;81.0;;;56.0;;
22675;SDS011;12521;43.310;21.876;2023-01-29T09:25:56;81.0;;;56.0;;
22675;SDS011;12521;43.310;21.876;2023-01-29T09:30:34;78.0;;;53.0;;
22675;SDS011;12521;43.310;21.876;2023-01-29T09:35:10;78.0;;;53.0;;
22675;SDS011;12521;43.310;21.876;2023-01-29T09:39:46;75.0;;;50.0;;
22675;SDS011;12521;43.310;21.876;2023-01-29T09:44:46;75.0;;;50.0;;
22675;SDS011;12521;43.310;21.876;2023-01-29T09:49:45;66.0;;;44.0;;
22675;SDS011;12521;43.310;21.876;2023-01-29T09:54:47;66.0;;;44.0;;
22675;SDS011;12521;43.310;21.876;2023-01-29T09:59:34;58.0;;;38.0;;
22675;SDS011;12521;43.310;21.876;2023-01-29T10:05:03;58.0;;;38.0;;
22675;SDS011;12521;43.310;21.876;2023-01-29T10:10:37;54.0;;;40.0;;
22675;SDS011;12521;43.310;21.876;2023-01-29T10:15:58;54.0;;;40.0;;
22675;SDS011;12521;43.310;21.876;2023-01-29T10:21:49;50.0;;;41.0;;
22675;SDS011;12521;43.310;21.876;2023-01-29T10:27:16;50.0;;;41.0;;
22675;SDS011;12521;43.310;21.876;2023-01-29T10:32:01;43.0;;;36.0;;
22675;SDS011;12521;43.310;21.876;2023-01-29T10:36:46;43.0;;;36.0;;
22675;SDS011;12521;43.310;21.876;2023-01-29T10:41:57;36.0;;;32.0;;
22675;SDS011;12521;43.310;21.876;2023-01-29T10:47:40;36.0;;;32.0;;
22675;SDS011;12521;43.310;21.876;2023-01-29T10:53:44;38.0;;;32.0;;
22675;SDS011;12521;43.310;21.876;2023-01-29T10:58:51;38.0;;;32.0;;
22675;SDS011;12521;43.310;21.876;2023-01-29T11:03:34;40.0;;;31.0;;
22675;SDS011;12521;43.310;21.876;2023-01-29T11:08:20;40.0;;;31.0;;
22675;SDS011;12521;43.310;21.876;2023-01-29T11:13:15;44.0;;;34.0;;
22675;SDS011;12521;43.310;21.876;2023-01-29T11:18:06;44.0;;;34.0;;
22675;SDS011;12521;43.310;21.876;2023-01-29T11:22:53;48.0;;;36.0;;
22675;SDS011;12521;43.310;21.876;2023-01-29T11:27:43;48.0;;;36.0;;
22675;SDS011;12521;43.310;21.876;2023-01-29T11:32:33;66.0;;;50.0;;
22675;SDS011;12521;43.310;21.876;2023-01-29T11:37:16;66.0;;;50.0;;
22675;SDS011;12521;43.310;21.876;2023-01-29T11:41:58;84.0;;;64.0;;
22675;SDS011;12521;43.310;21.876;2023-01-29T11:46:39;84.0;;;64.0;;
22675;SDS011;12521;43.310;21.876;2023-01-29T11:51:25;66.0;;;54.0;;
22675;SDS011;12521;43.310;21.876;2023-01-29T11:56:20;66.0;;;54.0;;
22675;SDS011;12521;43.310;21.876;2023-01-29T12:01:09;48.0;;;44.0;;
22675;SDS011;12521;43.310;21.876;2023-01-29T12:05:58;48.0;;;44.0;;
22675;SDS011;12521;43.310;21.876;2023-01-29T12:10:41;56.0;;;49.0;;
22675;SDS011;12521;43.310;21.876;2023-01-29T12:15:22;56.0;;;49.0;;
22675;SDS011;12521;43.310;21.876;2023-01-29T12:20:11;64.0;;;54.0;;
22675;SDS011;12521;43.310;21.876;2023-01-29T12:25:17;64.0;;;54.0;;
22675;SDS011;12521;43.310;21.876;2023-01-29T12:30:21;60.0;;;50.0;;
22675;SDS011;12521;43.310;21.876;2023-01-29T12:35:23;60.0;;;50.0;;
22675;SDS011;12521;43.310;21.876;2023-01-29T12:40:15;56.0;;;45.0;;
22675;SDS011;12521;43.310;21.876;2023-01-29T12:45:08;56.0;;;45.0;;
22675;SDS011;12521;43.310;21.876;2023-01-29T12:50:05;58.0;;;45.0;;
22675;SDS011;12521;43.310;21.876;2023-01-29T12:55:06;58.0;;;45.0;;
22675;SDS011;12521;43.310;21.876;2023-01-29T13:00:09;60.0;;;45.0;;
22675;SDS011;12521;43.310;21.876;2023-01-29T13:05:19;60.0;;;45.0;;
22675;SDS011;12521;43.310;21.876;2023-01-29T13:10:17;60.0;;;44.0;;
22675;SDS011;12521;43.310;21.876;2023-01-29T13:15:23;60.0;;;44.0;;
22675;SDS011;12521;43.310;21.876;2023-01-29T13:20:24;61.0;;;43.0;;
22675;SDS011;12521;43.310;21.876;2023-01-29T13:25:17;61.0;;;43.0;;
22675;SDS011;12521;43.310;21.876;2023-01-29T13:29:58;61.0;;;46.0;;
22675;SDS011;12521;43.310;21.876;2023-01-29T13:34:46;61.0;;;46.0;;
22675;SDS011;12521;43.310;21.876;2023-01-29T13:39:32;61.0;;;46.0;;
22675;SDS011;12521;43.310;21.876;2023-01-29T13:44:27;61.0;;;49.0;;
22675;SDS011;12521;43.310;21.876;2023-01-29T13:49:32;61.0;;;49.0;;
22675;SDS011;12521;43.310;21.876;2023-01-29T13:54:25;62.0;;;47.0;;
22675;SDS011;12521;43.310;21.876;2023-01-29T13:59:05;62.0;;;47.0;;
22675;SDS011;12521;43.310;21.876;2023-01-29T14:04:23;63.0;;;45.0;;
22675;SDS011;12521;43.310;21.876;2023-01-29T14:11:34;59.0;;;46.0;;
22675;SDS011;12521;43.310;21.876;2023-01-29T14:16:34;59.0;;;46.0;;
22675;SDS011;12521;43.310;21.876;2023-01-29T14:21:23;55.0;;;47.0;;
22675;SDS011;12521;43.310;21.876;2023-01-29T14:26:44;55.0;;;47.0;;
22675;SDS011;12521;43.310;21.876;2023-01-29T14:31:42;49.0;;;41.0;;
22675;SDS011;12521;43.310;21.876;2023-01-29T14:36:40;49.0;;;41.0;;
22675;SDS011;12521;43.310;21.876;2023-01-29T14:41:30;43.0;;;35.0;;
22675;SDS011;12521;43.310;21.876;2023-01-29T14:46:48;43.0;;;35.0;;
22675;SDS011;12521;43.310;21.876;2023-01-29T14:51:37;54.0;;;42.0;;
22675;SDS011;12521;43.310;21.876;2023-01-29T14:56:33;54.0;;;42.0;;
22675;SDS011;12521;43.310;21.876;2023-01-29T15:01:27;65.0;;;49.0;;
22675;SDS011;12521;43.310;21.876;2023-01-29T15:06:28;65.0;;;49.0;;
22675;SDS011;12521;43.310;21.876;2023-01-29T15:11:36;76.0;;;57.0;;
22675;SDS011;12521;43.310;21.876;2023-01-29T15:16:44;76.0;;;57.0;;
22675;SDS011;12521;43.310;21.876;2023-01-29T15:21:36;86.0;;;65.0;;
22675;SDS011;12521;43.310;21.876;2023-01-29T15:26:24;86.0;;;65.0;;
22675;SDS011;12521;43.310;21.876;2023-01-29T15:31:07;112.0;;;83.0;;
22675;SDS011;12521;43.310;21.876;2023-01-29T15:35:59;112.0;;;83.0;;
22675;SDS011;12521;43.310;21.876;2023-01-29T15:40:51;139.0;;;101.0;;
22675;SDS011;12521;43.310;21.876;2023-01-29T15:45:33;139.0;;;101.0;;
22675;SDS011;12521;43.310;21.876;2023-01-29T15:50:16;113.0;;;87.0;;
22675;SDS011;12521;43.310;21.876;2023-01-29T15:55:00;113.0;;;87.0;;
22675;SDS011;12521;43.310;21.876;2023-01-29T15:59:45;113.0;;;87.0;;
22675;SDS011;12521;43.310;21.876;2023-01-29T16:04:29;87.0;;;73.0;;
22675;SDS011;12521;43.310;21.876;2023-01-29T16:09:15;87.0;;;73.0;;
22675;SDS011;12521;43.310;21.876;2023-01-29T16:14:02;89.0;;;71.0;;
22675;SDS011;12521;43.310;21.876;2023-01-29T16:18:46;89.0;;;71.0;;
22675;SDS011;12521;43.310;21.876;2023-01-29T16:23:30;91.0;;;69.0;;
22675;SDS011;12521;43.310;21.876;2023-01-29T16:28:17;91.0;;;69.0;;
22675;SDS011;12521;43.310;21.876;2023-01-29T16:33:03;87.0;;;70.0;;
22675;SDS011;12521;43.310;21.876;2023-01-29T16:37:50;87.0;;;70.0;;
22675;SDS011;12521;43.310;21.876;2023-01-29T16:42:42;83.0;;;71.0;;
22675;SDS011;12521;43.310;21.876;2023-01-29T16:47:32;83.0;;;71.0;;
22675;SDS011;12521;43.310;21.876;2023-01-29T16:52:22;84.0;;;71.0;;
22675;SDS011;12521;43.310;21.876;2023-01-29T16:57:17;84.0;;;71.0;;
22675;SDS011;12521;43.310;21.876;2023-01-29T17:02:25;86.0;;;71.0;;
22675;SDS011;12521;43.310;21.876;2023-01-29T17:07:16;86.0;;;71.0;;
22675;SDS011;12521;43.310;21.876;2023-01-29T17:12:00;76.0;;;58.0;;
22675;SDS011;12521;43.310;21.876;2023-01-29T17:17:01;76.0;;;58.0;;
22675;SDS011;12521;43.310;21.876;2023-01-29T17:21:50;67.0;;;46.0;;
22675;SDS011;12521;43.310;21.876;2023-01-29T17:26:26;67.0;;;46.0;;
22675;SDS011;12521;43.310;21.876;2023-01-29T17:31:03;60.0;;;42.0;;
22675;SDS011;12521;43.310;21.876;2023-01-29T17:35:42;60.0;;;42.0;;
22675;SDS011;12521;43.310;21.876;2023-01-29T17:40:35;53.0;;;39.0;;
22675;SDS011;12521;43.310;21.876;2023-01-29T17:45:17;53.0;;;39.0;;
22675;SDS011;12521;43.310;21.876;2023-01-29T17:49:53;53.0;;;39.0;;
22675;SDS011;12521;43.310;21.876;2023-01-29T17:54:30;54.0;;;39.0;;
22675;SDS011;12521;43.310;21.876;2023-01-29T17:59:14;54.0;;;39.0;;
22675;SDS011;12521;43.310;21.876;2023-01-29T18:03:53;54.0;;;39.0;;
22675;SDS011;12521;43.310;21.876;2023-01-29T18:08:34;54.0;;;39.0;;
22675;SDS011;12521;43.310;21.876;2023-01-29T18:13:14;53.0;;;42.0;;
22675;SDS011;12521;43.310;21.876;2023-01-29T18:17:51;53.0;;;42.0;;
22675;SDS011;12521;43.310;21.876;2023-01-29T18:22:27;52.0;;;45.0;;
22675;SDS011;12521;43.310;21.876;2023-01-29T18:27:04;52.0;;;45.0;;
22675;SDS011;12521;43.310;21.876;2023-01-29T18:31:41;58.0;;;49.0;;
22675;SDS011;12521;43.310;21.876;2023-01-29T18:36:18;58.0;;;49.0;;
22675;SDS011;12521;43.310;21.876;2023-01-29T18:41:03;65.0;;;53.0;;
22675;SDS011;12521;43.310;21.876;2023-01-29T18:45:42;65.0;;;53.0;;
22675;SDS011;12521;43.310;21.876;2023-01-29T18:50:19;72.0;;;54.0;;
22675;SDS011;12521;43.310;21.876;2023-01-29T18:54:55;72.0;;;54.0;;
22675;SDS011;12521;43.310;21.876;2023-01-29T18:59:31;72.0;;;54.0;;
22675;SDS011;12521;43.310;21.876;2023-01-29T19:04:08;79.0;;;54.0;;
22675;SDS011;12521;43.310;21.876;2023-01-29T19:08:44;79.0;;;54.0;;
22675;SDS011;12521;43.310;21.876;2023-01-29T19:13:20;71.0;;;48.0;;
22675;SDS011;12521;43.310;21.876;2023-01-29T19:17:57;71.0;;;48.0;;
22675;SDS011;12521;43.310;21.876;2023-01-29T19:22:34;63.0;;;43.0;;
22675;SDS011;12521;43.310;21.876;2023-01-29T19:27:10;63.0;;;43.0;;
22675;SDS011;12521;43.310;21.876;2023-01-29T19:31:47;64.0;;;44.0;;
22675;SDS011;12521;43.310;21.876;2023-01-29T19:36:24;64.0;;;44.0;;
22675;SDS011;12521;43.310;21.876;2023-01-29T19:41:01;65.0;;;45.0;;
22675;SDS011;12521;43.310;21.876;2023-01-29T19:45:40;65.0;;;45.0;;
22675;SDS011;12521;43.310;21.876;2023-01-29T19:50:17;83.0;;;55.0;;
22675;SDS011;12521;43.310;21.876;2023-01-29T19:54:55;83.0;;;55.0;;
22675;SDS011;12521;43.310;21.876;2023-01-29T19:59:32;83.0;;;55.0;;
22675;SDS011;12521;43.310;21.876;2023-01-29T20:04:10;101.0;;;65.0;;
22675;SDS011;12521;43.310;21.876;2023-01-29T20:08:46;101.0;;;65.0;;
22675;SDS011;12521;43.310;21.876;2023-01-29T20:13:22;86.0;;;57.0;;
22675;SDS011;12521;43.310;21.876;2023-01-29T20:17:59;86.0;;;57.0;;
22675;SDS011;12521;43.310;21.876;2023-01-29T20:22:35;71.0;;;49.0;;
22675;SDS011;12521;43.310;21.876;2023-01-29T20:27:12;71.0;;;49.0;;
22675;SDS011;12521;43.310;21.876;2023-01-29T20:31:48;58.0;;;42.0;;
22675;SDS011;12521;43.310;21.876;2023-01-29T20:36:24;58.0;;;42.0;;
22675;SDS011;12521;43.310;21.876;2023-01-29T20:41:03;44.0;;;35.0;;
22675;SDS011;12521;43.310;21.876;2023-01-29T20:45:46;44.0;;;35.0;;
22675;SDS011;12521;43.310;21.876;2023-01-29T20:50:23;48.0;;;40.0;;
22675;SDS011;12521;43.310;21.876;2023-01-29T20:54:59;48.0;;;40.0;;
22675;SDS011;12521;43.310;21.876;2023-01-29T20:59:35;48.0;;;40.0;;
22675;SDS011;12521;43.310;21.876;2023-01-29T21:04:12;53.0;;;45.0;;
22675;SDS011;12521;43.310;21.876;2023-01-29T21:08:48;53.0;;;45.0;;
22675;SDS011;12521;43.310;21.876;2023-01-29T21:13:24;50.0;;;38.0;;
22675;SDS011;12521;43.310;21.876;2023-01-29T21:18:01;50.0;;;38.0;;
22675;SDS011;12521;43.310;21.876;2023-01-29T21:22:37;48.0;;;32.0;;
22675;SDS011;12521;43.310;21.876;2023-01-29T21:27:13;48.0;;;32.0;;
22675;SDS011;12521;43.310;21.876;2023-01-29T21:31:50;46.0;;;33.0;;
22675;SDS011;12521;43.310;21.876;2023-01-29T21:36:26;46.0;;;33.0;;
22675;SDS011;12521;43.310;21.876;2023-01-29T21:41:04;44.0;;;34.0;;
22675;SDS011;12521;43.310;21.876;2023-01-29T21:45:44;44.0;;;34.0;;
22675;SDS011;12521;43.310;21.876;2023-01-29T21:50:20;52.0;;;38.0;;
22675;SDS011;12521;43.310;21.876;2023-01-29T21:54:57;52.0;;;38.0;;
22675;SDS011;12521;43.310;21.876;2023-01-29T21:59:34;52.0;;;38.0;;
22675;SDS011;12521;43.310;21.876;2023-01-29T22:04:10;60.0;;;41.0;;
22675;SDS011;12521;43.310;21.876;2023-01-29T22:08:47;60.0;;;41.0;;
22675;SDS011;12521;43.310;21.876;2023-01-29T22:13:25;58.0;;;41.0;;
22675;SDS011;12521;43.310;21.876;2023-01-29T22:18:02;58.0;;;41.0;;
22675;SDS011;12521;43.310;21.876;2023-01-29T22:22:40;56.0;;;41.0;;
22675;SDS011;12521;43.310;21.876;2023-01-29T22:27:17;56.0;;;41.0;;
22675;SDS011;12521;43.310;21.876;2023-01-29T22:31:54;52.0;;;40.0;;
22675;SDS011;12521;43.310;21.876;2023-01-29T22:36:31;52.0;;;40.0;;
22675;SDS011;12521;43.310;21.876;2023-01-29T22:41:08;49.0;;;39.0;;
22675;SDS011;12521;43.310;21.876;2023-01-29T22:45:47;49.0;;;39.0;;
22675;SDS011;12521;43.310;21.876;2023-01-29T22:50:24;49.0;;;39.0;;
22675;SDS011;12521;43.310;21.876;2023-01-29T22:55:00;49.0;;;39.0;;
22675;SDS011;12521;43.310;21.876;2023-01-29T22:59:37;49.0;;;39.0;;
22675;SDS011;12521;43.310;21.876;2023-01-29T23:13:27;57.0;;;43.0;;
22675;SDS011;12521;43.310;21.876;2023-01-29T23:18:05;57.0;;;43.0;;
22675;SDS011;12521;43.310;21.876;2023-01-29T23:22:42;57.0;;;43.0;;
22675;SDS011;12521;43.310;21.876;2023-01-29T23:27:18;57.0;;;43.0;;
22675;SDS011;12521;43.310;21.876;2023-01-29T23:31:54;50.0;;;38.0;;
22675;SDS011;12521;43.310;21.876;2023-01-29T23:36:31;50.0;;;38.0;;
22675;SDS011;12521;43.310;21.876;2023-01-29T23:41:07;43.0;;;33.0;;
22675;SDS011;12521;43.310;21.876;2023-01-29T23:45:43;43.0;;;33.0;;
22675;SDS011;12521;43.310;21.876;2023-01-29T23:50:19;43.0;;;33.0;;
22675;SDS011;12521;43.310;21.876;2023-01-29T23:54:56;42.0;;;30.0;;
22675;SDS011;12521;43.310;21.876;2023-01-29T23:59:32;42.0;;;30.0;;
